Time;durP1;ratioP1;P1;durP2;ratioP2;P2;SDS_P1;SDS_P2;PMS_P1;PMS_P2;Temp;Humidity;BMP_temperature;BMP_pressure;BME280_temperature;BME280_humidity;BME280_pressure;Samples;Min_cycle;Max_cycle;Signal;HPM_P1;HPM_P2
2022/06/18 00:01:52;;;;;;;10.70;3.03;;;;;;;23.36;75.27;101692.56;5033810;28;20469;-71
2022/06/18 00:04:20;;;;;;;7.72;2.75;;;;;;;23.34;75.62;101700.63;5032141;28;20034;-73
2022/06/18 00:07:02;;;;;;;7.75;2.95;;;;;;;23.32;75.97;101698.91;5030266;28;20036;-72
2022/06/18 00:09:31;;;;;;;8.02;3.15;;;;;;;23.28;75.72;101694.53;5031796;28;20505;-72
2022/06/18 00:14:50;;;;;;;12.98;3.25;;;;;;;23.23;76.48;101692.81;5026793;28;20091;-73
2022/06/18 00:17:17;;;;;;;8.30;3.45;;;;;;;23.20;76.66;101698.28;5031165;28;20033;-71
2022/06/18 00:19:43;;;;;;;6.05;3.20;;;;;;;23.15;76.93;101689.44;5031328;28;20112;-72
2022/06/18 00:22:12;;;;;;;9.98;3.95;;;;;;;23.14;76.90;101693.06;5033800;28;20036;-72
2022/06/18 00:24:38;;;;;;;9.52;3.13;;;;;;;23.08;78.01;101688.66;5026334;28;20141;-73
2022/06/18 00:27:03;;;;;;;13.68;3.63;;;;;;;23.13;78.34;101695.75;5030770;28;20182;-72
2022/06/18 00:29:29;;;;;;;8.45;2.97;;;;;;;23.13;78.28;101699.34;5031998;28;20033;-73
2022/06/18 00:31:54;;;;;;;4.80;2.83;;;;;;;23.14;78.13;101703.81;5028949;28;20026;-72
2022/06/18 00:34:19;;;;;;;7.15;2.83;;;;;;;23.02;79.00;101694.19;5032642;28;20013;-72
2022/06/18 00:36:45;;;;;;;9.82;3.28;;;;;;;23.04;79.19;101695.00;5030145;28;20026;-72
2022/06/18 00:39:17;;;;;;;12.15;4.25;;;;;;;23.07;79.54;101683.31;5028117;28;20025;-72
2022/06/18 00:41:45;;;;;;;7.00;3.30;;;;;;;22.99;80.29;101683.50;5032783;28;20109;-72
2022/06/18 00:44:44;;;;;;;8.23;3.28;;;;;;;22.95;80.11;101684.47;5029673;28;20071;-72
2022/06/18 00:47:28;;;;;;;7.57;3.85;;;;;;;22.88;80.92;101686.44;5000240;28;20151;-73
2022/06/18 00:50:16;;;;;;;8.23;3.22;;;;;;;22.93;80.75;101688.13;5029018;28;20161;-73
2022/06/18 00:52:44;;;;;;;6.53;3.35;;;;;;;22.79;81.48;101685.72;5033384;28;20052;-73
2022/06/18 00:55:34;;;;;;;8.32;3.35;;;;;;;22.80;81.80;101687.50;5031142;28;20533;-72
2022/06/18 00:58:15;;;;;;;12.93;3.67;;;;;;;22.86;82.53;101682.88;5030751;28;20335;-73
2022/06/18 01:00:45;;;;;;;8.80;4.00;;;;;;;22.88;82.30;101686.44;5042232;28;20108;-73
2022/06/18 01:03:33;;;;;;;13.55;4.50;;;;;;;22.90;82.23;101687.25;5031801;28;20044;-72
2022/06/18 01:06:03;;;;;;;8.10;3.60;;;;;;;22.82;82.44;101691.03;5032277;28;20025;-73
2022/06/18 01:08:33;;;;;;;8.15;3.35;;;;;;;22.84;82.79;101683.81;5032093;28;20376;-72
2022/06/18 01:11:01;;;;;;;10.60;3.58;;;;;;;22.83;83.10;101682.97;5031077;28;20045;-72
2022/06/18 01:13:32;;;;;;;8.85;3.58;;;;;;;22.84;83.09;101679.38;5030567;28;20033;-72
2022/06/18 01:15:58;;;;;;;10.68;3.90;;;;;;;22.85;83.20;101686.47;5032937;28;20033;-73
2022/06/18 01:18:23;;;;;;;13.55;3.63;;;;;;;22.85;83.66;101681.09;5018411;28;20524;-71
2022/06/18 01:20:54;;;;;;;9.30;3.92;;;;;;;22.92;84.63;101686.34;5030674;28;20068;-73
2022/06/18 01:23:29;;;;;;;14.43;3.80;;;;;;;22.89;83.95;101682.81;5032612;28;20100;-72
2022/06/18 01:25:55;;;;;;;7.60;3.22;;;;;;;22.89;84.45;101676.56;5032247;28;20024;-72
2022/06/18 01:28:22;;;;;;;10.75;3.45;;;;;;;22.85;84.44;101680.22;5028998;28;20045;-73
2022/06/18 01:30:47;;;;;;;10.10;3.40;;;;;;;22.83;84.75;101674.91;5024359;28;20029;-72
2022/06/18 01:33:14;;;;;;;8.63;3.70;;;;;;;22.81;85.66;101668.66;5032726;28;20029;-72
2022/06/18 01:35:43;;;;;;;8.70;3.53;;;;;;;22.80;85.46;101666.03;5032015;28;20064;-73
2022/06/18 01:38:11;;;;;;;11.45;3.83;;;;;;;22.80;85.43;101674.06;5030373;28;20064;-73
2022/06/18 01:41:49;;;;;;;8.27;3.40;;;;;;;22.73;85.25;101665.28;5030324;28;20022;-72
2022/06/18 01:43:50;;;;;;;13.05;4.20;;;;;;;22.68;85.02;101661.78;5021164;28;20086;-73
2022/06/18 01:46:16;;;;;;;8.43;3.53;;;;;;;22.66;85.77;101663.63;5029477;28;20026;-72
2022/06/18 01:48:45;;;;;;;12.95;3.60;;;;;;;22.63;85.62;101656.53;5032453;28;20117;-72
2022/06/18 01:51:16;;;;;;;15.30;4.05;;;;;;;22.46;87.12;101656.88;5027949;28;20028;-72
2022/06/18 01:53:51;;;;;;;17.92;4.47;;;;;;;22.37;88.39;101662.44;5031711;28;20124;-72
2022/06/18 01:56:25;;;;;;;25.23;4.32;;;;;;;22.27;89.64;101669.72;5030942;28;20848;-72
2022/06/18 01:58:50;;;;;;;18.08;4.40;;;;;;;22.10;91.12;101669.16;5029898;28;20052;-72
2022/06/18 02:01:27;;;;;;;14.30;4.40;;;;;;;22.06;91.80;101668.34;5030395;28;20030;-72
2022/06/18 02:03:54;;;;;;;22.90;5.70;;;;;;;21.97;92.78;101669.38;5023797;28;20295;-72
2022/06/18 02:06:20;;;;;;;13.52;4.75;;;;;;;21.81;94.29;101660.75;5026327;28;20024;-73
2022/06/18 02:08:45;;;;;;;9.55;4.15;;;;;;;21.82;95.10;101667.84;5031861;28;20037;-72
2022/06/18 02:11:13;;;;;;;14.10;4.30;;;;;;;21.66;96.08;101661.00;5031510;28;20155;-72
2022/06/18 02:13:43;;;;;;;13.05;4.63;;;;;;;21.64;97.12;101670.84;5030985;28;20033;-71
2022/06/18 02:16:15;;;;;;;16.38;4.75;;;;;;;21.52;97.78;101675.44;5030359;28;20025;-71
2022/06/18 02:18:42;;;;;;;18.40;4.90;;;;;;;21.38;99.82;101670.31;5029197;28;20036;-72
2022/06/18 02:21:11;;;;;;;15.20;4.40;;;;;;;21.51;99.47;101670.13;5030801;28;20405;-72
2022/06/18 02:23:36;;;;;;;15.55;4.95;;;;;;;21.43;100.00;101675.59;5029948;28;20030;-72
2022/06/18 02:26:04;;;;;;;10.30;4.20;;;;;;;21.43;100.00;101677.41;5029741;28;20071;-71
2022/06/18 02:28:32;;;;;;;24.55;5.60;;;;;;;21.36;100.00;101682.81;5030861;28;20120;-72
2022/06/18 02:31:00;;;;;;;17.23;5.82;;;;;;;21.31;100.00;101679.34;5024109;28;20572;-72
2022/06/18 02:33:39;;;;;;;12.60;4.88;;;;;;;21.30;100.00;101682.94;5022822;28;20032;-72
2022/06/18 02:36:16;;;;;;;14.63;5.30;;;;;;;21.11;100.00;101681.44;5030450;28;20432;-71
2022/06/18 02:38:43;;;;;;;13.20;5.57;;;;;;;20.91;100.00;101685.25;5028168;28;20036;-73
2022/06/18 02:41:10;;;;;;;19.88;6.68;;;;;;;20.86;100.00;101688.00;5028351;28;20064;-72
2022/06/18 02:43:35;;;;;;;18.30;5.68;;;;;;;20.87;100.00;101684.41;5029400;28;20057;-72
2022/06/18 02:46:03;;;;;;;15.05;5.85;;;;;;;20.87;100.00;101689.75;5035207;28;20064;-72
2022/06/18 02:48:32;;;;;;;16.42;5.88;;;;;;;20.71;100.00;101680.16;5035107;28;20057;-72
2022/06/18 02:50:59;;;;;;;19.15;5.57;;;;;;;20.60;100.00;101682.91;5033985;28;20140;-72
2022/06/18 02:53:27;;;;;;;14.00;6.13;;;;;;;20.53;100.00;101687.47;5026310;28;20092;-71
2022/06/18 02:55:56;;;;;;;20.25;6.70;;;;;;;20.57;100.00;101684.78;5033929;28;20392;-71
2022/06/18 02:58:26;;;;;;;21.00;6.43;;;;;;;20.59;100.00;101682.94;5028348;28;20056;-72
2022/06/18 03:01:04;;;;;;;18.00;6.40;;;;;;;20.50;100.00;101684.81;5032252;28;20064;-72
2022/06/18 03:03:34;;;;;;;20.73;5.85;;;;;;;20.45;100.00;101680.44;5025964;28;20034;-73
2022/06/18 03:06:00;;;;;;;16.42;6.72;;;;;;;20.37;100.00;101680.50;5032126;28;20033;-72
2022/06/18 03:08:29;;;;;;;20.42;6.88;;;;;;;20.41;100.00;101682.25;5033759;28;20037;-72
2022/06/18 03:13:39;;;;;;;16.80;5.70;;;;;;;20.42;100.00;101689.38;5035824;28;20043;-72
2022/06/18 03:16:08;;;;;;;16.88;6.45;;;;;;;20.44;100.00;101689.34;5028944;28;20433;-71
2022/06/18 03:18:36;;;;;;;16.33;6.93;;;;;;;20.53;100.00;101683.91;5033705;28;20034;-72
2022/06/18 03:21:17;;;;;;;20.88;6.85;;;;;;;20.51;100.00;101689.28;5033174;28;20078;-72
2022/06/18 03:23:44;;;;;;;14.43;6.43;;;;;;;20.57;100.00;101690.13;5034244;28;20032;-72
2022/06/18 03:26:09;;;;;;;21.02;7.55;;;;;;;20.52;100.00;101693.72;5034099;28;20053;-72
2022/06/18 03:28:35;;;;;;;18.83;6.75;;;;;;;20.38;100.00;101699.19;5033586;28;20083;-72
2022/06/18 03:31:00;;;;;;;23.58;7.18;;;;;;;20.29;100.00;101695.75;5034549;28;20096;-72
2022/06/18 03:33:26;;;;;;;18.90;7.10;;;;;;;20.18;100.00;101683.41;5035205;28;20132;-71
2022/06/18 03:35:52;;;;;;;17.77;6.95;;;;;;;20.12;100.00;101691.47;5031773;28;20040;-73
2022/06/18 03:38:19;;;;;;;18.60;6.43;;;;;;;19.99;100.00;101697.81;5029531;28;20540;-73
2022/06/18 03:40:45;;;;;;;18.45;6.65;;;;;;;19.86;100.00;101692.59;5028462;28;20482;-72
2022/06/18 03:43:12;;;;;;;18.35;6.68;;;;;;;19.87;100.00;101694.38;5034192;28;20029;-72
2022/06/18 03:45:41;;;;;;;25.73;7.13;;;;;;;19.79;100.00;101693.50;5026935;28;20108;-72
2022/06/18 03:48:07;;;;;;;22.60;6.85;;;;;;;19.76;100.00;101696.19;5031924;28;20049;-72
2022/06/18 03:50:33;;;;;;;24.10;7.53;;;;;;;19.74;100.00;101703.34;5027192;28;20029;-73
2022/06/18 03:52:59;;;;;;;19.58;7.20;;;;;;;19.78;100.00;101697.06;5032348;28;20493;-72
2022/06/18 03:55:25;;;;;;;17.70;7.10;;;;;;;19.73;100.00;101695.34;5034267;28;20036;-72
2022/06/18 03:57:51;;;;;;;26.20;7.53;;;;;;;19.74;100.00;101692.66;5030830;28;20032;-73
2022/06/18 04:00:20;;;;;;;20.65;7.50;;;;;;;19.66;100.00;101697.16;5033344;28;20396;-72
2022/06/18 04:02:46;;;;;;;29.23;8.07;;;;;;;19.67;100.00;101701.63;5030793;28;20032;-72
2022/06/18 04:05:12;;;;;;;27.73;6.80;;;;;;;19.57;100.00;101700.78;5033412;28;20033;-72
2022/06/18 04:07:38;;;;;;;22.23;8.60;;;;;;;19.50;100.00;101699.94;5033639;28;20025;-72
2022/06/18 04:10:06;;;;;;;21.02;7.43;;;;;;;19.44;100.00;101699.09;5034240;28;20087;-71
2022/06/18 04:12:32;;;;;;;24.15;8.60;;;;;;;19.43;100.00;101700.88;5032617;28;20111;-71
2022/06/18 04:14:57;;;;;;;15.57;6.82;;;;;;;19.38;100.00;101697.34;5033732;28;20026;-72
2022/06/18 04:17:23;;;;;;;25.35;8.15;;;;;;;19.42;100.00;101704.44;5020438;28;20103;-73
2022/06/18 04:19:48;;;;;;;19.88;7.97;;;;;;;19.40;100.00;101708.00;5026944;28;20025;-72
2022/06/18 04:22:14;;;;;;;19.80;8.15;;;;;;;19.37;100.00;101703.56;5032808;28;20416;-72
2022/06/18 04:24:40;;;;;;;25.23;8.52;;;;;;;19.35;100.00;101700.03;5032321;28;20034;-72
2022/06/18 04:27:06;;;;;;;19.67;8.15;;;;;;;19.38;100.00;101705.34;5032997;28;20025;-72
2022/06/18 04:29:32;;;;;;;21.73;8.35;;;;;;;19.32;100.00;101700.06;5033538;28;20047;-73
2022/06/18 04:31:59;;;;;;;28.63;9.60;;;;;;;19.35;100.00;101689.38;5032067;28;20056;-72
2022/06/18 04:34:24;;;;;;;18.55;8.98;;;;;;;19.25;100.00;101699.22;5031030;28;20061;-73
2022/06/18 04:36:50;;;;;;;28.75;9.13;;;;;;;19.31;100.00;101693.81;5030917;28;20064;-72
2022/06/18 04:39:15;;;;;;;20.58;8.98;;;;;;;19.32;100.00;101695.59;5033440;28;20100;-72
2022/06/18 04:41:41;;;;;;;24.15;9.18;;;;;;;19.35;100.00;101695.59;5033161;28;20022;-73
2022/06/18 04:44:06;;;;;;;26.35;9.13;;;;;;;19.32;100.00;101694.72;5028765;28;20091;-72
2022/06/18 04:46:32;;;;;;;23.05;9.00;;;;;;;19.36;100.00;101701.81;5031909;28;20511;-73
2022/06/18 04:48:58;;;;;;;26.27;8.60;;;;;;;19.31;100.00;101696.50;5030471;28;20033;-73
2022/06/18 04:51:24;;;;;;;21.80;8.80;;;;;;;19.41;100.00;101696.44;5031822;28;20036;-72
2022/06/18 04:53:49;;;;;;;21.05;8.02;;;;;;;19.41;100.00;101689.34;5032218;28;20432;-72
2022/06/18 04:56:15;;;;;;;21.60;8.23;;;;;;;19.35;100.00;101694.72;5031436;28;20032;-73
2022/06/18 04:58:41;;;;;;;24.42;8.05;;;;;;;19.40;100.00;101690.22;5032394;28;20040;-71
2022/06/18 05:01:07;;;;;;;18.70;6.85;;;;;;;19.47;100.00;101699.97;5028262;28;20037;-70
2022/06/18 05:03:33;;;;;;;26.15;8.07;;;;;;;19.32;100.00;101700.06;5029353;28;20029;-71
2022/06/18 05:05:58;;;;;;;20.98;8.13;;;;;;;19.40;100.00;101697.34;5027797;28;20025;-72
2022/06/18 05:08:25;;;;;;;20.95;9.27;;;;;;;19.49;100.00;101692.84;5028248;28;20029;-72
2022/06/18 05:10:50;;;;;;;29.58;8.63;;;;;;;19.49;100.00;101698.19;5028770;28;20030;-72
2022/06/18 05:13:16;;;;;;;23.23;8.27;;;;;;;19.49;100.00;101698.19;5030792;28;20037;-73
2022/06/18 05:15:42;;;;;;;21.17;7.78;;;;;;;19.59;100.00;101696.31;5030933;28;20021;-72
2022/06/18 05:18:12;;;;;;;21.40;9.00;;;;;;;19.53;100.00;101702.59;5029664;28;20029;-72
2022/06/18 05:20:37;;;;;;;29.48;8.25;;;;;;;19.54;100.00;101700.81;5032118;28;20025;-72
2022/06/18 05:23:02;;;;;;;21.67;8.50;;;;;;;19.57;100.00;101700.78;5032890;28;20040;-73
2022/06/18 05:25:28;;;;;;;22.25;7.78;;;;;;;19.62;100.00;101695.44;5030638;28;20109;-73
2022/06/18 05:27:53;;;;;;;24.70;8.40;;;;;;;19.59;100.00;101698.09;5030589;28;20473;-72
2022/06/18 05:30:25;;;;;;;23.55;8.70;;;;;;;19.55;100.00;101703.47;5033351;28;20052;-73
2022/06/18 05:32:51;;;;;;;20.33;8.48;;;;;;;19.58;100.00;101701.69;5029757;28;20037;-72
2022/06/18 05:35:17;;;;;;;24.42;8.70;;;;;;;19.61;100.00;101690.97;5030362;28;20052;-72
2022/06/18 05:37:42;;;;;;;23.88;8.10;;;;;;;19.65;100.00;101700.72;5030295;28;20033;-72
2022/06/18 05:40:10;;;;;;;25.48;8.43;;;;;;;19.69;100.00;101694.47;5030375;28;20034;-72
2022/06/18 05:42:35;;;;;;;25.55;9.45;;;;;;;19.75;100.00;101697.09;5032598;28;20026;-72
2022/06/18 05:45:01;;;;;;;25.70;8.52;;;;;;;19.76;100.00;101701.53;5029797;28;20467;-73
2022/06/18 05:47:31;;;;;;;21.15;8.75;;;;;;;19.74;100.00;101700.66;5031458;28;20053;-73
2022/06/18 05:49:56;;;;;;;24.70;8.43;;;;;;;19.78;100.00;101705.09;5027487;28;20033;-72
2022/06/18 05:52:24;;;;;;;24.08;9.27;;;;;;;19.81;100.00;101701.53;5032251;28;20064;-73
2022/06/18 05:54:51;;;;;;;21.27;7.85;;;;;;;19.90;100.00;101701.47;5027011;28;20038;-73
2022/06/18 05:57:17;;;;;;;19.40;8.07;;;;;;;19.98;100.00;101702.28;5029592;28;20049;-73
2022/06/18 05:59:42;;;;;;;20.80;7.95;;;;;;;20.06;100.00;101699.53;5031108;28;20029;-72
2022/06/18 06:02:11;;;;;;;20.85;8.57;;;;;;;20.09;100.00;101698.59;5030228;28;20071;-73
2022/06/18 06:04:39;;;;;;;22.75;8.07;;;;;;;20.18;100.00;101699.44;5032047;28;20425;-73
2022/06/18 06:07:31;;;;;;;19.17;8.35;;;;;;;20.25;100.00;101705.56;5028247;28;20064;-72
2022/06/18 06:12:40;;;;;;;28.70;8.20;;;;;;;20.33;100.00;101710.84;5031882;28;20091;-73
2022/06/18 06:15:06;;;;;;;26.10;7.07;;;;;;;20.38;100.00;101720.59;5027121;28;20021;-73
2022/06/18 06:17:32;;;;;;;23.08;7.80;;;;;;;20.42;100.00;101718.78;5036420;28;20041;-73
2022/06/18 06:20:24;;;;;;;21.35;7.60;;;;;;;20.49;100.00;101723.16;5035722;28;20056;-72
2022/06/18 06:22:50;;;;;;;15.68;6.43;;;;;;;20.58;100.00;101718.59;5035194;28;20083;-72
2022/06/18 06:25:15;;;;;;;23.25;7.40;;;;;;;20.63;100.00;101716.78;5036009;28;20408;-72
2022/06/18 06:27:41;;;;;;;19.13;7.57;;;;;;;20.66;100.00;101716.72;5036077;28;20026;-73
2022/06/18 06:30:11;;;;;;;20.15;8.10;;;;;;;20.69;100.00;101727.44;5034618;28;20441;-73
2022/06/18 06:32:36;;;;;;;27.13;6.45;;;;;;;20.73;100.00;101729.19;5035597;28;20033;-73
2022/06/18 06:35:01;;;;;;;21.13;6.72;;;;;;;20.74;100.00;101730.97;5034502;28;20037;-73
2022/06/18 06:37:27;;;;;;;23.90;6.18;;;;;;;20.77;100.00;101733.59;5035119;28;20495;-73
2022/06/18 06:39:52;;;;;;;17.95;6.60;;;;;;;20.83;100.00;101730.81;5035394;28;20021;-73
2022/06/18 06:42:17;;;;;;;15.20;6.63;;;;;;;20.86;100.00;101741.50;5035422;28;20045;-73
2022/06/18 06:44:43;;;;;;;27.38;6.85;;;;;;;20.87;100.00;101737.91;5031101;28;20034;-73
2022/06/18 06:47:08;;;;;;;14.32;5.75;;;;;;;20.84;100.00;101740.63;5033790;28;20060;-72
2022/06/18 06:49:33;;;;;;;21.08;6.40;;;;;;;20.94;100.00;101743.19;5034305;28;20114;-72
2022/06/18 06:51:59;;;;;;;15.55;6.57;;;;;;;21.04;100.00;101740.38;5031850;28;20048;-72
2022/06/18 06:54:24;;;;;;;16.90;7.53;;;;;;;21.07;100.00;101734.13;5032432;28;20369;-73
2022/06/18 06:59:33;;;;;;;13.18;5.53;;;;;;;21.12;100.00;101737.63;5033380;28;20044;-73
2022/06/18 07:02:02;;;;;;;20.33;5.70;;;;;;;21.20;100.00;101746.44;5032737;28;20497;-73
2022/06/18 07:04:27;;;;;;;13.18;6.35;;;;;;;21.25;100.00;101742.81;5031864;28;20021;-72
2022/06/18 07:06:56;;;;;;;21.02;5.80;;;;;;;21.37;100.00;101737.28;5034285;28;20036;-72
2022/06/18 07:09:21;;;;;;;15.82;5.50;;;;;;;21.44;100.00;101751.47;5028479;28;20041;-73
2022/06/18 07:11:46;;;;;;;12.30;5.60;;;;;;;21.54;100.00;101755.78;5031924;28;20028;-72
2022/06/18 07:14:12;;;;;;;16.70;6.30;;;;;;;21.65;100.00;101755.63;5033621;28;20029;-74
2022/06/18 07:16:47;;;;;;;17.30;5.85;;;;;;;21.66;100.00;101754.75;5035399;28;20029;-73
2022/06/18 07:19:13;;;;;;;18.63;6.25;;;;;;;21.71;100.00;101756.44;5025967;28;20030;-73
2022/06/18 07:21:38;;;;;;;20.65;6.22;;;;;;;21.82;100.00;101756.25;5027211;28;20117;-73
2022/06/18 07:24:04;;;;;;;18.70;6.10;;;;;;;21.90;100.00;101757.03;5027323;28;20117;-72
2022/06/18 07:26:29;;;;;;;14.07;5.82;;;;;;;21.95;100.00;101748.03;5026292;28;20033;-72
2022/06/18 07:28:55;;;;;;;10.57;5.40;;;;;;;22.03;100.00;101746.09;5026014;28;20544;-71
2022/06/18 07:31:27;;;;;;;24.77;6.22;;;;;;;22.13;100.00;101750.41;5030428;28;20065;-72
2022/06/18 07:33:53;;;;;;;14.13;5.53;;;;;;;22.19;100.00;101755.69;5033593;28;20029;-73
2022/06/18 07:36:19;;;;;;;21.10;5.68;;;;;;;22.21;100.00;101753.84;5033772;28;20064;-76
2022/06/18 07:38:45;;;;;;;16.17;5.30;;;;;;;22.35;100.00;101750.06;5031862;28;20053;-71
2022/06/18 07:41:11;;;;;;;17.20;5.00;;;;;;;22.33;100.00;101751.88;5032034;28;20461;-73
2022/06/18 07:43:44;;;;;;;17.10;4.78;;;;;;;22.44;100.00;101749.03;5032081;28;20144;-74
2022/06/18 07:46:12;;;;;;;16.88;4.60;;;;;;;22.57;100.00;101742.50;5033799;28;20033;-73
2022/06/18 07:48:41;;;;;;;12.93;4.78;;;;;;;22.68;100.00;101748.56;5030628;28;20544;-73
2022/06/18 07:51:07;;;;;;;18.33;5.55;;;;;;;22.75;100.00;101749.31;5034736;28;20412;-72
2022/06/18 07:53:34;;;;;;;18.83;5.75;;;;;;;22.85;100.00;101747.31;5033212;28;20052;-72
2022/06/18 07:56:00;;;;;;;15.77;4.72;;;;;;;22.93;100.00;101744.50;5032119;28;20045;-72
2022/06/18 07:58:28;;;;;;;22.70;6.03;;;;;;;22.85;100.00;101745.50;5025672;28;20033;-73
2022/06/18 08:00:55;;;;;;;16.67;6.13;;;;;;;22.55;100.00;101739.84;5027780;28;20112;-72
2022/06/18 08:03:21;;;;;;;16.73;5.43;;;;;;;22.80;100.00;101742.03;5028486;28;20482;-74
2022/06/18 08:05:47;;;;;;;11.85;4.18;;;;;;;23.03;100.00;101744.28;5033017;28;20059;-73
2022/06/18 08:08:14;;;;;;;14.63;5.40;;;;;;;23.07;100.00;101742.38;5032313;28;20106;-72
2022/06/18 08:10:41;;;;;;;12.10;4.97;;;;;;;23.10;100.00;101736.97;5033725;28;20029;-73
2022/06/18 08:13:07;;;;;;;18.25;5.47;;;;;;;23.24;100.00;101744.75;5033238;28;20535;-73
2022/06/18 08:15:33;;;;;;;11.98;5.45;;;;;;;23.33;100.00;101743.66;5033171;28;20037;-73
2022/06/18 08:17:58;;;;;;;16.33;5.05;;;;;;;23.24;100.00;101737.56;5023937;28;20033;-72
2022/06/18 08:20:25;;;;;;;17.70;5.22;;;;;;;23.45;100.00;101740.69;5032882;28;20021;-72
2022/06/18 08:22:55;;;;;;;18.83;4.88;;;;;;;23.47;100.00;101736.16;5033350;28;20033;-72
2022/06/18 08:25:22;;;;;;;10.70;4.75;;;;;;;23.42;100.00;101730.00;5047848;28;20033;-73
2022/06/18 08:27:48;;;;;;;11.38;4.88;;;;;;;23.67;100.00;101732.13;5031409;28;20112;-72
2022/06/18 08:30:13;;;;;;;12.88;4.63;;;;;;;23.81;100.00;101723.75;5019942;28;20433;-73
2022/06/18 08:32:39;;;;;;;13.73;4.60;;;;;;;23.86;100.00;101725.38;5031287;28;20540;-72
2022/06/18 08:35:05;;;;;;;14.05;4.57;;;;;;;23.95;100.00;101726.97;5032183;28;20038;-72
2022/06/18 08:37:32;;;;;;;15.23;4.80;;;;;;;23.98;100.00;101728.72;5028718;28;20022;-72
2022/06/18 08:39:58;;;;;;;18.15;4.63;;;;;;;23.95;100.00;101726.97;5030193;28;20037;-72
2022/06/18 08:42:55;;;;;;;16.65;4.65;;;;;;;24.11;100.00;101730.16;5033304;28;20034;-71
2022/06/18 08:45:24;;;;;;;10.02;4.20;;;;;;;24.32;100.00;101719.75;5015938;28;20060;-71
2022/06/18 08:48:06;;;;;;;11.48;4.05;;;;;;;24.28;100.00;101710.91;5017717;28;20030;-72
2022/06/18 08:51:04;;;;;;;20.92;5.18;;;;;;;24.13;100.00;101717.53;5026140;28;20025;-71
2022/06/18 08:53:37;;;;;;;16.42;4.25;;;;;;;24.36;100.00;101707.97;5027998;28;20118;-71
2022/06/18 08:56:09;;;;;;;17.40;5.15;;;;;;;24.44;100.00;101716.72;5028968;28;20052;-72
2022/06/18 08:58:53;;;;;;;17.65;4.88;;;;;;;24.49;99.03;101714.78;5032850;28;20021;-72
2022/06/18 09:01:38;;;;;;;16.15;4.10;;;;;;;24.67;98.17;101712.53;5032373;28;20030;-72
2022/06/18 09:04:24;;;;;;;14.30;3.83;;;;;;;24.86;98.21;101719.16;5020189;28;20120;-72
2022/06/18 09:07:10;;;;;;;17.15;4.85;;;;;;;24.96;96.70;101716.19;5031503;28;20034;-72
2022/06/18 09:09:59;;;;;;;14.30;4.32;;;;;;;25.07;96.81;101724.84;5030729;28;20059;-71
2022/06/18 09:12:57;;;;;;;12.88;5.00;;;;;;;25.19;96.50;101726.25;5031989;28;20087;-72
2022/06/18 09:15:36;;;;;;;13.60;3.80;;;;;;;25.22;96.84;101729.75;5025922;28;20485;-71
2022/06/18 09:18:14;;;;;;;8.80;3.45;;;;;;;25.38;96.89;101721.22;5028915;28;20025;-70
2022/06/18 09:20:53;;;;;;;11.85;4.40;;;;;;;25.52;97.82;101726.19;5032411;28;20022;-72
2022/06/18 09:23:29;;;;;;;13.13;4.28;;;;;;;25.45;99.98;101722.81;5031878;28;20029;-72
2022/06/18 09:25:57;;;;;;;11.15;3.30;;;;;;;25.54;98.97;101722.50;5030432;28;20465;-71
2022/06/18 09:28:32;;;;;;;11.52;3.20;;;;;;;25.67;97.48;101722.97;5021551;28;20032;-71
2022/06/18 09:31:10;;;;;;;8.88;3.35;;;;;;;25.74;96.73;101723.66;5031382;28;20056;-71
2022/06/18 09:34:10;;;;;;;8.23;2.92;;;;;;;25.84;96.51;101714.34;5032823;28;20143;-72
2022/06/18 09:36:41;;;;;;;8.80;3.45;;;;;;;25.68;94.55;101721.16;5008692;28;20127;-71
2022/06/18 09:39:14;;;;;;;15.10;5.18;;;;;;;25.92;95.73;101724.84;5032233;28;20107;-71
2022/06/18 09:42:00;;;;;;;;;;;;;;;25.99;94.37;101725.53;5031114;28;20037;-71
2022/06/18 09:44:37;;;;;;;12.63;3.65;;;;;;;26.12;90.51;101723.34;5022954;28;20389;-70
2022/06/18 09:47:08;;;;;;;12.73;3.22;;;;;;;26.14;91.74;101719.66;5025337;28;20078;-71
2022/06/18 09:49:34;;;;;;;13.45;3.88;;;;;;;25.88;92.78;101720.50;5031262;28;20033;-71
2022/06/18 09:52:04;;;;;;;10.68;2.65;;;;;;;26.12;92.35;101720.63;5031163;28;20046;-71
2022/06/18 09:54:38;;;;;;;10.98;3.38;;;;;;;26.30;91.54;101713.69;5031222;28;20029;-71
2022/06/18 09:57:04;;;;;;;8.93;2.95;;;;;;;26.38;91.88;101709.81;5032184;28;20405;-71
2022/06/18 09:59:42;;;;;;;10.38;2.88;;;;;;;26.42;89.61;101699.75;5027003;28;20029;-72
2022/06/18 10:02:22;;;;;;;9.27;2.45;;;;;;;26.51;89.56;101702.13;5031187;28;20040;-72
2022/06/18 10:07:39;;;;;;;8.38;3.10;;;;;;;26.44;92.60;101697.91;5027044;28;20111;-71
2022/06/18 10:10:13;;;;;;;9.02;2.83;;;;;;;26.61;92.03;101699.09;5029568;28;20032;-71
2022/06/18 10:12:44;;;;;;;9.15;2.67;;;;;;;26.69;92.45;101695.16;5028768;28;20034;-71
2022/06/18 10:15:12;;;;;;;17.48;4.38;;;;;;;26.66;95.03;101691.72;5029379;28;20021;-71
2022/06/18 10:17:37;;;;;;;13.70;3.50;;;;;;;26.82;91.38;101686.63;5029486;28;20037;-71
2022/06/18 10:20:07;;;;;;;10.90;2.63;;;;;;;26.97;92.19;101690.56;5025203;28;20026;-70
2022/06/18 10:22:54;;;;;;;10.35;3.67;;;;;;;27.05;92.69;101692.03;5029257;28;20295;-69
2022/06/18 10:26:02;;;;;;;10.43;3.67;;;;;;;27.15;91.64;101695.25;5030036;28;20033;-70
2022/06/18 10:28:46;;;;;;;12.38;4.05;;;;;;;27.22;88.78;101694.03;5026235;28;20642;-71
2022/06/18 10:31:18;;;;;;;7.13;2.42;;;;;;;27.43;87.99;101694.19;5029481;28;20473;-69
2022/06/18 10:34:12;;;;;;;8.98;2.97;;;;;;;27.59;88.36;101678.19;5030135;28;20107;-71
2022/06/18 10:36:45;;;;;;;9.63;3.17;;;;;;;27.66;88.01;101678.81;5031201;28;20162;-69
2022/06/18 10:39:25;;;;;;;5.70;1.98;;;;;;;27.81;87.42;101682.69;5028726;28;20029;-70
2022/06/18 10:41:56;;;;;;;8.68;2.60;;;;;;;27.90;85.41;101679.59;5028336;28;20036;-70
2022/06/18 10:44:44;;;;;;;6.85;2.95;;;;;;;28.14;86.59;101680.38;5026828;28;20393;-71
2022/06/18 10:47:15;;;;;;;12.20;2.92;;;;;;;28.33;84.04;101677.72;5032170;28;20051;-68
2022/06/18 10:49:40;;;;;;;13.30;3.50;;;;;;;28.23;81.41;101670.97;5031701;28;20040;-71
2022/06/18 10:52:25;;;;;;;11.52;3.60;;;;;;;27.93;82.29;101661.41;5039613;28;20481;-71
2022/06/18 10:55:04;;;;;;;13.00;3.63;;;;;;;28.03;81.54;101670.03;5029493;28;20067;-69
2022/06/18 10:57:29;;;;;;;13.10;3.38;;;;;;;27.67;78.98;101664.34;5032245;28;20392;-70
2022/06/18 10:59:54;;;;;;;9.50;3.17;;;;;;;27.87;82.13;101667.06;5040397;28;20021;-71
2022/06/18 11:02:34;;;;;;;11.15;3.35;;;;;;;27.96;79.10;101659.50;5035255;28;20025;-69
2022/06/18 11:05:03;;;;;;;5.28;2.17;;;;;;;28.05;77.86;101669.97;5029342;28;20481;-70
2022/06/18 11:07:33;;;;;;;8.27;2.50;;;;;;;27.97;79.95;101669.38;5035437;28;20033;-69
2022/06/18 11:10:07;;;;;;;11.18;2.70;;;;;;;28.07;83.21;101668.06;5031261;28;20056;-69
2022/06/18 11:12:38;;;;;;;12.88;3.03;;;;;;;28.14;79.27;101668.69;5035734;28;20021;-71
2022/06/18 11:15:22;;;;;;;6.57;2.58;;;;;;;27.84;81.85;101666.34;5043120;28;20047;-70
2022/06/18 11:17:47;;;;;;;10.10;3.03;;;;;;;27.97;79.97;101661.25;5043000;28;20027;-69
2022/06/18 11:20:20;;;;;;;7.22;2.72;;;;;;;28.11;82.11;101658.88;5040885;28;20461;-69
2022/06/18 11:22:52;;;;;;;5.30;2.85;;;;;;;28.36;77.76;101652.34;5039705;28;20037;-68
2022/06/18 11:25:40;;;;;;;9.10;3.20;;;;;;;28.22;79.72;101644.88;5031616;28;20028;-70
2022/06/18 11:28:14;;;;;;;7.38;3.13;;;;;;;28.41;77.98;101647.63;5024089;28;20438;-69
2022/06/18 11:30:44;;;;;;;16.40;3.60;;;;;;;28.67;77.44;101651.84;5030302;28;20433;-69
2022/06/18 11:33:37;;;;;;;10.75;3.03;;;;;;;28.79;76.52;101650.41;5030361;28;20036;-70
2022/06/18 11:36:15;;;;;;;8.40;3.05;;;;;;;28.75;71.91;101643.38;5033092;28;20049;-69
2022/06/18 11:38:50;;;;;;;8.05;2.90;;;;;;;29.03;76.48;101642.91;5034208;28;20104;-69
2022/06/18 11:41:33;;;;;;;11.10;2.95;;;;;;;28.66;74.17;101643.78;5034210;28;20056;-68
2022/06/18 11:44:17;;;;;;;7.10;3.17;;;;;;;28.56;75.86;101655.03;5025219;28;20132;-70